sensor_id;sensor_type;location;lat;lon;timestamp;pressure;altitude;pressure_sealevel;temperature;humidity
27358;BME280;14831;50.474;7.616;2023-03-04T00:00:35;98850;;;-0.8;97.4
27358;BME280;14831;50.474;7.616;2023-03-04T00:05:35;98860;;;-0.8;97.4
27358;BME280;14831;50.474;7.616;2023-03-04T00:10:35;98850;;;-0.8;97.4
27358;BME280;14831;50.474;7.616;2023-03-04T00:15:35;98850;;;-0.8;97.5
27358;BME280;14831;50.474;7.616;2023-03-04T00:20:35;98840;;;-0.8;97.4
27358;BME280;14831;50.474;7.616;2023-03-04T00:25:35;98840;;;-0.7;97.5
27358;BME280;14831;50.474;7.616;2023-03-04T00:30:35;98840;;;-0.7;97.4
27358;BME280;14831;50.474;7.616;2023-03-04T00:35:35;98830;;;-0.6;97.4
27358;BME280;14831;50.474;7.616;2023-03-04T00:40:35;98830;;;-0.6;97.3
27358;BME280;14831;50.474;7.616;2023-03-04T00:45:35;98830;;;-0.5;96.9
27358;BME280;14831;50.474;7.616;2023-03-04T00:50:39;98830;;;-0.5;96.6
27358;BME280;14831;50.474;7.616;2023-03-04T00:55:35;98820;;;-0.5;96.4
27358;BME280;14831;50.474;7.616;2023-03-04T01:00:35;98830;;;-0.4;96.4
27358;BME280;14831;50.474;7.616;2023-03-04T01:05:35;98820;;;-0.4;96.1
27358;BME280;14831;50.474;7.616;2023-03-04T01:10:35;98820;;;-0.3;96.1
27358;BME280;14831;50.474;7.616;2023-03-04T01:15:35;98820;;;-0.3;95.7
27358;BME280;14831;50.474;7.616;2023-03-04T01:20:35;98820;;;-0.3;95.8
27358;BME280;14831;50.474;7.616;2023-03-04T01:25:35;98810;;;-0.2;94.9
27358;BME280;14831;50.474;7.616;2023-03-04T01:30:35;98810;;;-0.2;95.2
27358;BME280;14831;50.474;7.616;2023-03-04T01:35:35;98800;;;-0.1;94.3
27358;BME280;14831;50.474;7.616;2023-03-04T01:40:35;98790;;;-0.1;94.5
27358;BME280;14831;50.474;7.616;2023-03-04T01:45:35;98780;;;-0.0;93.6
27358;BME280;14831;50.474;7.616;2023-03-04T01:50:35;98780;;;-0.0;93.6
27358;BME280;14831;50.474;7.616;2023-03-04T01:55:35;98770;;;0.0;90.3
27358;BME280;14831;50.474;7.616;2023-03-04T02:00:35;98780;;;0.0;90.2
27358;BME280;14831;50.474;7.616;2023-03-04T02:05:35;98760;;;0.0;90.0
27358;BME280;14831;50.474;7.616;2023-03-04T02:10:35;98760;;;0.1;89.4
27358;BME280;14831;50.474;7.616;2023-03-04T02:15:35;98760;;;0.1;89.2
27358;BME280;14831;50.474;7.616;2023-03-04T02:20:37;98760;;;0.3;87.9
27358;BME280;14831;50.474;7.616;2023-03-04T02:25:36;98750;;;0.3;87.6
27358;BME280;14831;50.474;7.616;2023-03-04T02:30:35;98750;;;0.3;87.8
27358;BME280;14831;50.474;7.616;2023-03-04T02:35:35;98750;;;0.2;88.0
27358;BME280;14831;50.474;7.616;2023-03-04T02:40:35;98750;;;0.1;88.3
27358;BME280;14831;50.474;7.616;2023-03-04T02:45:37;98740;;;0.1;88.9
27358;BME280;14831;50.474;7.616;2023-03-04T02:50:36;98750;;;0.0;89.1
27358;BME280;14831;50.474;7.616;2023-03-04T02:55:35;98750;;;0.0;89.4
27358;BME280;14831;50.474;7.616;2023-03-04T03:00:35;98750;;;0.1;89.4
27358;BME280;14831;50.474;7.616;2023-03-04T03:05:35;98740;;;0.1;89.4
27358;BME280;14831;50.474;7.616;2023-03-04T03:10:35;98740;;;0.1;89.4
27358;BME280;14831;50.474;7.616;2023-03-04T03:15:35;98730;;;0.2;89.0
27358;BME280;14831;50.474;7.616;2023-03-04T03:20:35;98730;;;0.3;88.0
27358;BME280;14831;50.474;7.616;2023-03-04T03:25:41;98730;;;0.3;87.9
27358;BME280;14831;50.474;7.616;2023-03-04T03:30:35;98740;;;0.5;86.5
27358;BME280;14831;50.474;7.616;2023-03-04T03:35:35;98720;;;0.5;85.4
27358;BME280;14831;50.474;7.616;2023-03-04T03:40:35;98720;;;0.5;86.3
27358;BME280;14831;50.474;7.616;2023-03-04T03:45:35;98720;;;0.5;86.0
27358;BME280;14831;50.474;7.616;2023-03-04T03:50:35;98730;;;0.5;85.9
27358;BME280;14831;50.474;7.616;2023-03-04T03:55:35;98730;;;0.5;85.8
27358;BME280;14831;50.474;7.616;2023-03-04T04:00:35;98720;;;0.4;86.0
27358;BME280;14831;50.474;7.616;2023-03-04T04:05:35;98720;;;0.6;85.0
27358;BME280;14831;50.474;7.616;2023-03-04T04:10:42;98720;;;0.6;85.0
27358;BME280;14831;50.474;7.616;2023-03-04T04:15:35;98720;;;0.6;85.1
27358;BME280;14831;50.474;7.616;2023-03-04T04:20:35;98720;;;0.6;85.1
27358;BME280;14831;50.474;7.616;2023-03-04T04:25:35;98720;;;0.6;84.7
27358;BME280;14831;50.474;7.616;2023-03-04T04:30:35;98700;;;0.7;84.7
27358;BME280;14831;50.474;7.616;2023-03-04T04:35:35;98700;;;0.7;84.3
27358;BME280;14831;50.474;7.616;2023-03-04T04:40:35;98700;;;0.7;84.8
27358;BME280;14831;50.474;7.616;2023-03-04T04:45:35;98700;;;0.7;84.1
27358;BME280;14831;50.474;7.616;2023-03-04T04:50:35;98700;;;0.7;84.3
27358;BME280;14831;50.474;7.616;2023-03-04T04:55:35;98710;;;0.7;84.5
27358;BME280;14831;50.474;7.616;2023-03-04T05:00:35;98700;;;0.7;84.4
27358;BME280;14831;50.474;7.616;2023-03-04T05:05:35;98690;;;0.7;84.7
27358;BME280;14831;50.474;7.616;2023-03-04T05:10:35;98710;;;0.7;84.6
27358;BME280;14831;50.474;7.616;2023-03-04T05:15:41;98700;;;0.8;84.6
27358;BME280;14831;50.474;7.616;2023-03-04T05:20:35;98710;;;0.9;83.1
27358;BME280;14831;50.474;7.616;2023-03-04T05:25:35;98700;;;0.9;83.1
27358;BME280;14831;50.474;7.616;2023-03-04T05:30:35;98700;;;1.1;82.0
27358;BME280;14831;50.474;7.616;2023-03-04T05:35:35;98700;;;1.1;82.4
27358;BME280;14831;50.474;7.616;2023-03-04T05:40:35;98700;;;1.1;82.4
27358;BME280;14831;50.474;7.616;2023-03-04T05:45:35;98710;;;1.2;81.7
27358;BME280;14831;50.474;7.616;2023-03-04T05:50:35;98700;;;1.1;82.2
27358;BME280;14831;50.474;7.616;2023-03-04T05:55:35;98710;;;1.1;82.3
27358;BME280;14831;50.474;7.616;2023-03-04T06:00:35;98710;;;1.2;81.6
27358;BME280;14831;50.474;7.616;2023-03-04T06:05:35;98710;;;1.2;82.1
27358;BME280;14831;50.474;7.616;2023-03-04T06:10:35;98710;;;1.1;82.4
27358;BME280;14831;50.474;7.616;2023-03-04T06:15:35;98720;;;1.2;82.3
27358;BME280;14831;50.474;7.616;2023-03-04T06:20:35;98720;;;1.2;82.3
27358;BME280;14831;50.474;7.616;2023-03-04T06:25:35;98730;;;1.1;82.6
27358;BME280;14831;50.474;7.616;2023-03-04T06:30:35;98730;;;1.1;82.6
27358;BME280;14831;50.474;7.616;2023-03-04T06:35:35;98740;;;1.2;82.2
27358;BME280;14831;50.474;7.616;2023-03-04T06:40:35;98750;;;1.2;82.4
27358;BME280;14831;50.474;7.616;2023-03-04T06:45:37;98740;;;1.2;82.3
27358;BME280;14831;50.474;7.616;2023-03-04T06:50:35;98750;;;1.2;82.1
27358;BME280;14831;50.474;7.616;2023-03-04T06:55:35;98750;;;1.3;82.4
27358;BME280;14831;50.474;7.616;2023-03-04T07:00:35;98750;;;1.2;82.6
27358;BME280;14831;50.474;7.616;2023-03-04T07:05:38;98750;;;1.3;82.2
27358;BME280;14831;50.474;7.616;2023-03-04T07:10:35;98760;;;1.3;82.5
27358;BME280;14831;50.474;7.616;2023-03-04T07:15:36;98760;;;1.3;82.2
27358;BME280;14831;50.474;7.616;2023-03-04T07:20:35;98760;;;1.3;81.9
27358;BME280;14831;50.474;7.616;2023-03-04T07:25:35;98770;;;1.4;82.1
27358;BME280;14831;50.474;7.616;2023-03-04T07:30:35;98770;;;1.4;81.7
27358;BME280;14831;50.474;7.616;2023-03-04T07:35:35;98770;;;1.4;81.8
27358;BME280;14831;50.474;7.616;2023-03-04T07:40:35;98780;;;1.5;80.7
27358;BME280;14831;50.474;7.616;2023-03-04T07:45:35;98780;;;1.5;81.0
27358;BME280;14831;50.474;7.616;2023-03-04T07:50:35;98790;;;1.5;80.9
27358;BME280;14831;50.474;7.616;2023-03-04T07:55:35;98780;;;1.6;79.7
27358;BME280;14831;50.474;7.616;2023-03-04T08:00:35;98790;;;1.6;80.1
27358;BME280;14831;50.474;7.616;2023-03-04T08:05:37;98790;;;1.6;80.2
27358;BME280;14831;50.474;7.616;2023-03-04T08:10:35;98800;;;1.7;80.2
27358;BME280;14831;50.474;7.616;2023-03-04T08:15:38;98800;;;1.8;79.7
27358;BME280;14831;50.474;7.616;2023-03-04T08:20:35;98800;;;1.8;79.7
27358;BME280;14831;50.474;7.616;2023-03-04T08:25:37;98810;;;1.8;79.4
27358;BME280;14831;50.474;7.616;2023-03-04T08:30:35;98810;;;1.9;79.9
27358;BME280;14831;50.474;7.616;2023-03-04T08:35:35;98800;;;1.8;80.9
27358;BME280;14831;50.474;7.616;2023-03-04T08:40:35;98810;;;1.8;81.1
27358;BME280;14831;50.474;7.616;2023-03-04T08:45:35;98810;;;1.9;80.7
27358;BME280;14831;50.474;7.616;2023-03-04T08:50:35;98820;;;1.9;80.5
27358;BME280;14831;50.474;7.616;2023-03-04T08:55:36;98810;;;1.9;80.5
27358;BME280;14831;50.474;7.616;2023-03-04T09:00:36;98800;;;2.0;80.5
27358;BME280;14831;50.474;7.616;2023-03-04T09:05:35;98820;;;2.0;80.6
27358;BME280;14831;50.474;7.616;2023-03-04T09:10:35;98810;;;2.0;80.6
27358;BME280;14831;50.474;7.616;2023-03-04T09:15:35;98810;;;2.0;80.7
27358;BME280;14831;50.474;7.616;2023-03-04T09:20:35;98810;;;2.0;80.5
27358;BME280;14831;50.474;7.616;2023-03-04T09:25:35;98810;;;2.1;80.5
27358;BME280;14831;50.474;7.616;2023-03-04T09:30:35;98810;;;2.1;80.6
27358;BME280;14831;50.474;7.616;2023-03-04T09:35:35;98820;;;2.2;80.0
27358;BME280;14831;50.474;7.616;2023-03-04T09:40:37;98820;;;2.2;80.1
27358;BME280;14831;50.474;7.616;2023-03-04T09:45:36;98820;;;2.2;80.1
27358;BME280;14831;50.474;7.616;2023-03-04T09:50:37;98820;;;2.3;80.0
27358;BME280;14831;50.474;7.616;2023-03-04T09:55:36;98810;;;2.4;79.7
27358;BME280;14831;50.474;7.616;2023-03-04T10:00:36;98810;;;2.4;79.2
27358;BME280;14831;50.474;7.616;2023-03-04T10:05:37;98810;;;2.4;78.9
27358;BME280;14831;50.474;7.616;2023-03-04T10:10:36;98810;;;2.5;79.5
27358;BME280;14831;50.474;7.616;2023-03-04T10:15:35;98810;;;2.5;78.8
27358;BME280;14831;50.474;7.616;2023-03-04T10:20:40;98810;;;2.6;78.9
27358;BME280;14831;50.474;7.616;2023-03-04T10:25:35;98800;;;2.6;79.1
27358;BME280;14831;50.474;7.616;2023-03-04T10:30:37;98800;;;2.7;78.9
27358;BME280;14831;50.474;7.616;2023-03-04T10:35:35;98800;;;2.6;78.4
27358;BME280;14831;50.474;7.616;2023-03-04T10:40:36;98800;;;2.7;78.9
27358;BME280;14831;50.474;7.616;2023-03-04T10:45:36;98800;;;2.6;78.9
27358;BME280;14831;50.474;7.616;2023-03-04T10:50:35;98790;;;2.7;78.4
27358;BME280;14831;50.474;7.616;2023-03-04T10:55:41;98800;;;2.9;78.3
27358;BME280;14831;50.474;7.616;2023-03-04T11:00:35;98790;;;3.1;78.4
27358;BME280;14831;50.474;7.616;2023-03-04T11:05:35;98780;;;3.2;76.9
27358;BME280;14831;50.474;7.616;2023-03-04T11:10:38;98780;;;3.8;77.1
27358;BME280;14831;50.474;7.616;2023-03-04T11:15:45;98780;;;3.9;74.5
27358;BME280;14831;50.474;7.616;2023-03-04T11:20:36;98800;;;3.9;74.5
27358;BME280;14831;50.474;7.616;2023-03-04T11:25:35;98790;;;4.3;74.2
27358;BME280;14831;50.474;7.616;2023-03-04T11:30:37;98780;;;4.3;74.0
27358;BME280;14831;50.474;7.616;2023-03-04T11:35:37;98790;;;4.0;74.1
27358;BME280;14831;50.474;7.616;2023-03-04T11:40:36;98780;;;4.0;71.9
27358;BME280;14831;50.474;7.616;2023-03-04T11:45:40;98780;;;3.9;72.2
27358;BME280;14831;50.474;7.616;2023-03-04T11:50:38;98780;;;4.0;72.8
27358;BME280;14831;50.474;7.616;2023-03-04T11:55:37;98760;;;4.1;72.8
27358;BME280;14831;50.474;7.616;2023-03-04T12:00:36;98760;;;4.3;72.0
27358;BME280;14831;50.474;7.616;2023-03-04T12:05:37;98760;;;4.3;72.4
27358;BME280;14831;50.474;7.616;2023-03-04T12:10:36;98760;;;4.3;72.8
27358;BME280;14831;50.474;7.616;2023-03-04T12:15:37;98750;;;4.4;73.1
27358;BME280;14831;50.474;7.616;2023-03-04T12:20:40;98740;;;4.4;73.4
27358;BME280;14831;50.474;7.616;2023-03-04T12:25:36;98740;;;4.2;73.7
27358;BME280;14831;50.474;7.616;2023-03-04T12:30:39;98740;;;4.3;73.5
27358;BME280;14831;50.474;7.616;2023-03-04T12:35:36;98730;;;4.4;73.5
27358;BME280;14831;50.474;7.616;2023-03-04T12:40:37;98730;;;4.2;73.9
27358;BME280;14831;50.474;7.616;2023-03-04T12:45:38;98730;;;4.3;74.9
27358;BME280;14831;50.474;7.616;2023-03-04T12:50:36;98730;;;4.1;75.9
27358;BME280;14831;50.474;7.616;2023-03-04T12:55:35;98720;;;4.0;76.2
27358;BME280;14831;50.474;7.616;2023-03-04T13:00:39;98710;;;4.2;75.3
27358;BME280;14831;50.474;7.616;2023-03-04T13:05:39;98700;;;4.3;75.1
27358;BME280;14831;50.474;7.616;2023-03-04T13:10:35;98690;;;4.5;74.2
27358;BME280;14831;50.474;7.616;2023-03-04T13:15:35;98690;;;4.5;75.1
27358;BME280;14831;50.474;7.616;2023-03-04T13:20:36;98690;;;4.3;75.0
27358;BME280;14831;50.474;7.616;2023-03-04T13:25:36;98700;;;4.4;74.9
27358;BME280;14831;50.474;7.616;2023-03-04T13:31:04;98690;;;4.4;75.1
27358;BME280;14831;50.474;7.616;2023-03-04T13:35:56;98690;;;4.4;76.0
27358;BME280;14831;50.474;7.616;2023-03-04T13:40:35;98680;;;4.4;75.5
27358;BME280;14831;50.474;7.616;2023-03-04T13:45:35;98680;;;4.4;75.8
27358;BME280;14831;50.474;7.616;2023-03-04T13:50:37;98680;;;4.3;77.2
27358;BME280;14831;50.474;7.616;2023-03-04T13:55:42;98680;;;4.2;78.1
27358;BME280;14831;50.474;7.616;2023-03-04T14:00:35;98680;;;4.2;77.9
27358;BME280;14831;50.474;7.616;2023-03-04T14:05:35;98670;;;4.1;78.4
27358;BME280;14831;50.474;7.616;2023-03-04T14:10:35;98670;;;4.2;79.0
27358;BME280;14831;50.474;7.616;2023-03-04T14:15:42;98680;;;4.1;79.6
27358;BME280;14831;50.474;7.616;2023-03-04T14:20:35;98670;;;4.0;80.3
27358;BME280;14831;50.474;7.616;2023-03-04T14:25:35;98670;;;4.0;80.2
27358;BME280;14831;50.474;7.616;2023-03-04T14:30:35;98650;;;3.9;80.9
27358;BME280;14831;50.474;7.616;2023-03-04T14:35:40;98640;;;4.0;81.1
27358;BME280;14831;50.474;7.616;2023-03-04T14:40:35;98640;;;4.1;80.4
27358;BME280;14831;50.474;7.616;2023-03-04T14:45:35;98640;;;4.2;79.9
27358;BME280;14831;50.474;7.616;2023-03-04T14:50:35;98610;;;4.2;79.8
27358;BME280;14831;50.474;7.616;2023-03-04T14:55:37;98620;;;4.2;79.5
27358;BME280;14831;50.474;7.616;2023-03-04T15:00:35;98610;;;4.2;79.5
27358;BME280;14831;50.474;7.616;2023-03-04T15:05:35;98600;;;4.2;79.5
27358;BME280;14831;50.474;7.616;2023-03-04T15:10:35;98600;;;4.2;79.1
27358;BME280;14831;50.474;7.616;2023-03-04T15:15:40;98590;;;4.4;79.4
27358;BME280;14831;50.474;7.616;2023-03-04T15:20:35;98600;;;4.3;79.1
27358;BME280;14831;50.474;7.616;2023-03-04T15:25:35;98590;;;4.3;79.7
27358;BME280;14831;50.474;7.616;2023-03-04T15:30:35;98590;;;4.3;79.3
27358;BME280;14831;50.474;7.616;2023-03-04T15:35:35;98580;;;4.3;79.5
27358;BME280;14831;50.474;7.616;2023-03-04T15:40:36;98590;;;4.3;80.1
27358;BME280;14831;50.474;7.616;2023-03-04T15:45:35;98580;;;4.3;79.7
27358;BME280;14831;50.474;7.616;2023-03-04T15:50:36;98580;;;4.3;80.2
27358;BME280;14831;50.474;7.616;2023-03-04T15:55:37;98570;;;4.2;80.1
27358;BME280;14831;50.474;7.616;2023-03-04T16:00:35;98570;;;4.2;80.5
27358;BME280;14831;50.474;7.616;2023-03-04T16:05:35;98580;;;4.2;80.5
27358;BME280;14831;50.474;7.616;2023-03-04T16:10:35;98570;;;4.1;80.9
27358;BME280;14831;50.474;7.616;2023-03-04T16:15:36;98590;;;4.1;81.2
27358;BME280;14831;50.474;7.616;2023-03-04T16:20:35;98580;;;4.1;81.9
27358;BME280;14831;50.474;7.616;2023-03-04T16:25:35;98580;;;4.1;81.7
27358;BME280;14831;50.474;7.616;2023-03-04T16:30:35;98570;;;4.0;82.0
27358;BME280;14831;50.474;7.616;2023-03-04T16:35:35;98570;;;3.9;82.7
27358;BME280;14831;50.474;7.616;2023-03-04T16:40:35;98570;;;3.9;83.2
27358;BME280;14831;50.474;7.616;2023-03-04T16:45:35;98570;;;3.9;83.6
27358;BME280;14831;50.474;7.616;2023-03-04T16:50:35;98570;;;3.9;84.1
27358;BME280;14831;50.474;7.616;2023-03-04T16:55:35;98580;;;3.8;84.7
27358;BME280;14831;50.474;7.616;2023-03-04T17:00:35;98580;;;3.8;85.4
27358;BME280;14831;50.474;7.616;2023-03-04T17:05:35;98570;;;3.8;86.1
27358;BME280;14831;50.474;7.616;2023-03-04T17:10:35;98570;;;3.7;87.2
27358;BME280;14831;50.474;7.616;2023-03-04T17:15:35;98570;;;3.7;88.2
27358;BME280;14831;50.474;7.616;2023-03-04T17:20:35;98570;;;3.6;88.4
27358;BME280;14831;50.474;7.616;2023-03-04T17:25:35;98550;;;3.6;88.4
27358;BME280;14831;50.474;7.616;2023-03-04T17:30:35;98560;;;3.6;88.5
27358;BME280;14831;50.474;7.616;2023-03-04T17:35:36;98550;;;3.6;89.0
27358;BME280;14831;50.474;7.616;2023-03-04T17:40:35;98550;;;3.5;89.6
27358;BME280;14831;50.474;7.616;2023-03-04T17:45:40;98560;;;3.5;89.8
27358;BME280;14831;50.474;7.616;2023-03-04T17:50:35;98550;;;3.5;89.6
27358;BME280;14831;50.474;7.616;2023-03-04T17:55:35;98560;;;3.5;89.5
27358;BME280;14831;50.474;7.616;2023-03-04T18:00:35;98570;;;3.5;89.4
27358;BME280;14831;50.474;7.616;2023-03-04T18:05:35;98560;;;3.5;90.1
27358;BME280;14831;50.474;7.616;2023-03-04T18:10:35;98550;;;3.5;90.1
27358;BME280;14831;50.474;7.616;2023-03-04T18:15:35;98560;;;3.5;90.1
27358;BME280;14831;50.474;7.616;2023-03-04T18:20:35;98550;;;3.5;90.4
27358;BME280;14831;50.474;7.616;2023-03-04T18:25:35;98550;;;3.4;90.8
27358;BME280;14831;50.474;7.616;2023-03-04T18:30:36;98550;;;3.4;91.5
27358;BME280;14831;50.474;7.616;2023-03-04T18:35:35;98560;;;3.3;92.6
27358;BME280;14831;50.474;7.616;2023-03-04T18:40:37;98550;;;3.3;92.9
27358;BME280;14831;50.474;7.616;2023-03-04T18:45:35;98550;;;3.3;93.6
27358;BME280;14831;50.474;7.616;2023-03-04T18:50:35;98540;;;3.3;94.3
27358;BME280;14831;50.474;7.616;2023-03-04T18:55:35;98550;;;3.3;94.5
27358;BME280;14831;50.474;7.616;2023-03-04T19:00:35;98540;;;3.2;94.9
27358;BME280;14831;50.474;7.616;2023-03-04T19:05:35;98540;;;3.2;95.1
27358;BME280;14831;50.474;7.616;2023-03-04T19:10:35;98540;;;3.3;94.9
27358;BME280;14831;50.474;7.616;2023-03-04T19:15:35;98550;;;3.3;95.0
27358;BME280;14831;50.474;7.616;2023-03-04T19:20:35;98550;;;3.3;94.8
27358;BME280;14831;50.474;7.616;2023-03-04T19:25:35;98550;;;3.3;94.7
27358;BME280;14831;50.474;7.616;2023-03-04T19:30:37;98560;;;3.2;94.4
27358;BME280;14831;50.474;7.616;2023-03-04T19:35:38;98560;;;3.3;94.6
27358;BME280;14831;50.474;7.616;2023-03-04T19:40:36;98560;;;3.2;94.4
27358;BME280;14831;50.474;7.616;2023-03-04T19:45:35;98550;;;3.2;94.1
27358;BME280;14831;50.474;7.616;2023-03-04T19:50:35;98560;;;3.2;94.2
27358;BME280;14831;50.474;7.616;2023-03-04T19:55:35;98550;;;3.2;94.2
27358;BME280;14831;50.474;7.616;2023-03-04T20:00:35;98550;;;3.2;94.0
27358;BME280;14831;50.474;7.616;2023-03-04T20:05:35;98550;;;3.1;93.7
27358;BME280;14831;50.474;7.616;2023-03-04T20:10:35;98540;;;3.2;93.4
27358;BME280;14831;50.474;7.616;2023-03-04T20:15:35;98550;;;3.2;93.1
27358;BME280;14831;50.474;7.616;2023-03-04T20:20:36;98550;;;3.1;93.2
27358;BME280;14831;50.474;7.616;2023-03-04T20:25:35;98540;;;3.1;93.4
27358;BME280;14831;50.474;7.616;2023-03-04T20:30:35;98540;;;3.1;93.1
27358;BME280;14831;50.474;7.616;2023-03-04T20:35:35;98550;;;3.1;93.3
27358;BME280;14831;50.474;7.616;2023-03-04T20:40:35;98550;;;3.1;92.7
27358;BME280;14831;50.474;7.616;2023-03-04T20:45:35;98540;;;3.1;92.2
27358;BME280;14831;50.474;7.616;2023-03-04T20:50:35;98550;;;3.1;91.8
27358;BME280;14831;50.474;7.616;2023-03-04T20:55:35;98550;;;3.1;91.1
27358;BME280;14831;50.474;7.616;2023-03-04T21:00:35;98550;;;3.2;90.0
27358;BME280;14831;50.474;7.616;2023-03-04T21:05:35;98550;;;3.1;90.1
27358;BME280;14831;50.474;7.616;2023-03-04T21:10:35;98540;;;3.1;89.6
27358;BME280;14831;50.474;7.616;2023-03-04T21:15:35;98550;;;3.1;89.3
27358;BME280;14831;50.474;7.616;2023-03-04T21:20:35;98540;;;3.1;89.5
27358;BME280;14831;50.474;7.616;2023-03-04T21:25:35;98540;;;3.1;88.6
27358;BME280;14831;50.474;7.616;2023-03-04T21:30:36;98540;;;3.1;88.8
27358;BME280;14831;50.474;7.616;2023-03-04T21:35:35;98530;;;3.1;88.9
27358;BME280;14831;50.474;7.616;2023-03-04T21:40:35;98530;;;3.1;88.9
27358;BME280;14831;50.474;7.616;2023-03-04T21:45:35;98520;;;3.1;88.4
27358;BME280;14831;50.474;7.616;2023-03-04T21:50:35;98530;;;3.1;87.7
27358;BME280;14831;50.474;7.616;2023-03-04T21:55:35;98530;;;3.1;87.6
27358;BME280;14831;50.474;7.616;2023-03-04T22:00:36;98540;;;3.0;86.7
27358;BME280;14831;50.474;7.616;2023-03-04T22:05:37;98530;;;3.0;86.2
27358;BME280;14831;50.474;7.616;2023-03-04T22:10:35;98530;;;3.1;85.9
27358;BME280;14831;50.474;7.616;2023-03-04T22:15:35;98530;;;3.1;85.7
27358;BME280;14831;50.474;7.616;2023-03-04T22:20:35;98520;;;3.1;85.9
27358;BME280;14831;50.474;7.616;2023-03-04T22:25:35;98520;;;3.0;86.4
27358;BME280;14831;50.474;7.616;2023-03-04T22:30:35;98520;;;3.0;86.4
27358;BME280;14831;50.474;7.616;2023-03-04T22:35:37;98520;;;3.0;87.2
27358;BME280;14831;50.474;7.616;2023-03-04T22:40:35;98510;;;2.9;87.4
27358;BME280;14831;50.474;7.616;2023-03-04T22:45:35;98510;;;2.9;87.3
27358;BME280;14831;50.474;7.616;2023-03-04T22:50:35;98520;;;2.9;86.6
27358;BME280;14831;50.474;7.616;2023-03-04T22:55:35;98520;;;2.9;86.7
27358;BME280;14831;50.474;7.616;2023-03-04T23:00:35;98510;;;2.9;86.0
27358;BME280;14831;50.474;7.616;2023-03-04T23:05:35;98510;;;2.9;85.9
27358;BME280;14831;50.474;7.616;2023-03-04T23:10:35;98510;;;2.8;86.0
27358;BME280;14831;50.474;7.616;2023-03-04T23:15:35;98500;;;2.8;85.8
27358;BME280;14831;50.474;7.616;2023-03-04T23:20:35;98520;;;2.9;82.4
27358;BME280;14831;50.474;7.616;2023-03-04T23:25:35;98490;;;2.8;83.1
27358;BME280;14831;50.474;7.616;2023-03-04T23:30:35;98500;;;2.8;81.5
27358;BME280;14831;50.474;7.616;2023-03-04T23:35:35;98490;;;2.8;81.3
27358;BME280;14831;50.474;7.616;2023-03-04T23:40:35;98490;;;2.8;81.2
27358;BME280;14831;50.474;7.616;2023-03-04T23:45:35;98470;;;2.7;81.3
27358;BME280;14831;50.474;7.616;2023-03-04T23:50:35;98480;;;2.7;81.3
27358;BME280;14831;50.474;7.616;2023-03-04T23:55:35;98480;;;2.7;81.5
